Sunday, June 24, 2018, 8:40 PM EDT
Back to Local

KCAR, Caribou Municipal Airport

Location: Caribou, ME, United States Lat: 46.867
Local Time: 8:40 PM EDT ( 0:40 GMT) Lon: -68.017
Time Zone: US/Eastern Elev: 626 ft

Show me the last for .
Show Coded

Time T Td Feel RH Dir Speed Gust Alt SLP Vis Weather Sky Remarks
2018-06-24 19:54 58 51 - 77 360° 5 - 29.87 29.88 10 -RA OVC100 1-hr Precip Total: Trace
6-hr Precip Total (8pm): 0.00"
6-hr Min Temp (8pm): 57.9°F
6-hr Max Temp (8pm): 75.0°F
2018-06-24 18:54 60 48 - 64 10° 12 - 29.85 29.86 10 -RA OVC060 1-hr Precip Total: Trace
2018-06-24 17:54 63 47 - 55 10° 9 - 29.83 29.84 10 OVC050 None
2018-06-24 16:54 66 48 - 52 360° 13 - 29.81 29.81 10 OVC055 None
2018-06-24 15:54 69 49 - 48 340° 12 23 29.78 29.79 10 OVC055 None
2018-06-24 14:54 72 51 76 47 350° 10 18 29.76 29.77 10 OVC050 None
2018-06-24 13:54 75 51 77 43 360° 9 16 29.75 29.75 10 BKN048 6-hr Min Temp (2pm): 57.9°F
6-hr Max Temp (2pm): 75.0°F
2018-06-24 12:54 72 51 76 47 360° 10 - 29.76 29.76 10 FEW039 None
2018-06-24 11:54 69 53 - 56 320° 8 - 29.74 29.75 10 CLR None
2018-06-24 10:54 68 54 - 60 Variable 5 - 29.73 29.74 10 CLR None
2018-06-24 09:54 66 55 - 67 300° 8 - 29.73 29.73 10 OVC110 None
2018-06-24 08:54 61 53 - 75 270° 5 - 29.72 29.73 10 BKN100 BKN120 None
2018-06-24 07:54 58 52 - 80 220° 3 - 29.71 29.72 10 OVC100 1-hr Precip Total: Trace
6-hr Precip Total (8am): 0.00"
6-hr Min Temp (8am): 55.9°F
6-hr Max Temp (8am): 59.0°F
2018-06-24 06:54 57 51 - 80 200° 3 - 29.70 29.71 10 FEW080 BKN095 OVC120 None
2018-06-24 05:54 56 50 - 80 200° 6 - 29.70 29.71 10 OVC080 None
2018-06-24 04:54 56 49 - 77 200° 5 - 29.71 29.71 10 FEW065 OVC080 None
2018-06-24 03:54 57 49 - 74 200° 7 - 29.72 29.72 10 OVC110 None
2018-06-24 02:54 58 49 - 71 190° 8 - 29.73 29.74 10 OVC043 None
2018-06-24 01:54 59 49 - 69 190° 7 - 29.75 29.75 10 OVC036 1-hr Precip Total: Trace
6-hr Precip Total (2am): 0.00"
6-hr Min Temp (2am): 59.0°F
6-hr Max Temp (2am): 66.0°F
2018-06-24 00:54 60 49 - 66 200° 7 - 29.76 29.76 10 -RA FEW110 1-hr Precip Total: Trace
24-hr Min Temp (1am): 50.0°F
24-hr Max Temp (1am): 78.1°F
2018-06-23 23:54 62 48 - 60 190° 6 - 29.77 29.77 10 BKN110 None
2018-06-23 22:54 62 49 - 62 190° 7 - 29.78 29.79 10 OVC110 None
2018-06-23 21:54 63 50 - 62 190° 8 - 29.80 29.80 10 OVC120 None
2018-06-23 20:54 64 50 - 60 180° 9 - 29.80 29.80 10 OVC120 None

Support USWX by starting your Amazon purchase here.